Main page
METAR-TAF:

METAR-TAF

Airports :

Tartu Airport

Tartu, Estonia

latitude: 58-18N, longitude: 026-44E, elevation: 59 m

Current weather observation

The report was made 41 minutes ago, at 01:50 UTC
Wind 2 kt from the East/Southeast
Temperature 8°C
Humidity 81%
Pressure 1025 hPa
Visibility 10 km or more
no clouds below 1500 m and no cumulonimbus

METAR: EETU 220150Z 11002KT CAVOK 08/05 Q1025

Time: 05:31 (02:31 UTC)

Forecast

The report was made 6 hours and 31 minutes ago, at 20:00 UTC
Forecast valid from 21 at 21 UTC to 22 at 03 UTC
Wind 2 kt from variable directions
Visibility 10 km or more
no clouds below 1500 m and no cumulonimbus

TAF: EETU 212000Z 2121/2203 VRB02KT CAVOK

Weather observations and forecasts of more than 4000 airports (METAR and TAF reports).

The available stations are represented by yellow and red dots on the map.

Hover mouse over dot to see the name of the station.

Then click to see weather observations and forecasts.

To change the map : click on the green buttons with a black cross to zoom in, on the green button with a dash to zoom out, or on the green arrows for adjacent maps.


METAR-TAF: